Weather observations for the past three days for
Bellaire, Antrim County Airport
Imperial (Metric)
Date Time (edt) Wind (mph) Vis. (mi.) Weather Sky Cond. Temperature (ºF) Relative Humidity Wind Chill (°F) Heat Index (°F) Pressure Precipitation (in)
Air Dwpt 6 hour altimeter (in) sea level (mb) 1 hr 3 hr 6 hr
Max. Min.
03 02:35 Calm 7.00 Fair CLR 58.8 57.6 96% 29.95 0.0
03 02:15 Calm 10.00 Fair CLR 59.2 57.9 96% 29.95 0.0
03 01:55 Calm 7.00 Fair CLR 59.2 58.1 68.4 59.2 96% 29.95 0.0
03 01:35 Calm 3.00 Fog/Mist CLR 59.4 58.1 96% 29.95 0.0
03 01:15 Calm 5.00 Fog/Mist CLR 59.5 58.3 96% 29.95 0.0
03 00:55 Calm 5.00 Fog/Mist CLR 59.9 58.6 96% 29.95 0.0
03 00:35 Calm 7.00 Fair CLR 60.4 59.2 96% 29.94 0.0
03 00:15 Calm 10.00 Fair CLR 61.3 59.9 95% 29.94 0.0
02 23:55 Calm 7.00 Fair CLR 61 59.5 95% 29.93 0.0
02 23:35 Calm 7.00 Fair CLR 61.7 60.3 95% 29.93 0.0
02 23:15 Calm 10.00 Fair CLR 62.6 61 94% 29.93 0.0
02 22:55 Calm 10.00 Fair CLR 62.2 60.8 95% 29.93 0.0
02 22:35 Calm 10.00 Fair CLR 62.6 61.2 95% 29.93 0.0
02 22:15 Calm 10.00 Fair CLR 62.8 61.3 95% 29.93 0.0
02 21:55 Calm 10.00 Fair CLR 63.3 61.5 94% 29.93 0.0
02 21:35 Calm 10.00 Fair CLR 63.9 62.2 95% 29.93 0.0
02 21:15 Calm 10.00 Fair CLR 64.4 62.6 94% 29.92 0.0
02 20:55 Calm 10.00 Fair CLR 65.1 62.6 92% 29.91 0.0
02 20:35 Calm 10.00 Fair CLR 66 63.1 91% 29.91 0.0
02 20:15 Calm 10.00 Fair CLR 67.6 64 88% 29.9 0.0
02 19:55 Calm 10.00 Fair CLR 68.5 64.6 80.1 68.5 87% 29.91 0.0
02 19:35 Calm 10.00 Fair CLR 70.7 64.6 81% 29.91 0.0
02 19:15 Calm 10.00 Fair CLR 75.2 62.1 64% 77 29.92 0.0
02 18:55 Calm 10.00 Fair CLR 76.1 61.5 61% 78 29.91 0.0
02 18:35 Calm 10.00 Fair CLR 76.5 60.8 59% 78 29.92 0.0
02 18:15 W 3 10.00 Fair CLR 77 60.3 56% 79 29.92 0.0
02 17:55 W 5 10.00 Fair CLR 78.4 59.9 53% 80 29.91 0.0
02 17:35 Calm 10.00 Fair CLR 77.9 61.5 57% 79 29.91 0.0
02 17:15 W 3 10.00 Fair CLR 79 61.3 55% 80 29.91 0.0
02 16:55 W 5 10.00 Fair CLR 79 60.4 53% 80 29.91 0.0
02 16:35 W 3 10.00 Fair CLR 79.7 60.1 51% 81 29.91 0.0
02 16:15 Calm 10.00 Fair CLR 79.3 59.7 51% 80 29.92 0.0
02 15:55 NW 3 10.00 Fair CLR 78.4 60.6 54% 80 29.92 0.0
02 15:35 N 3 10.00 Fair CLR 76.6 62.6 62% 78 29.92 0.0
02 15:15 N 5 10.00 Fair CLR 77.5 63.9 63% 79 29.93 0.0
02 14:55 Calm 10.00 Fair CLR 77 61.7 59% 79 29.94 0.0
02 14:35 Calm 10.00 Fair CLR 75.4 59.2 57% 78 29.94 0.0
02 14:15 Calm 10.00 Fair CLR 76.1 61.9 62% 78 29.94 0.0
02 13:55 SW 3 10.00 Fair CLR 75.9 62.1 75.9 66.6 62% 78 29.94 0.0
02 13:35 Calm 10.00 Fair CLR 74.5 61 63% 29.95 0.0
02 13:15 Calm 10.00 Fair CLR 72.9 62.2 69% 29.94 0.0
02 12:55 Calm 10.00 Fair CLR 71.8 62.8 73% 29.92 0.0
02 12:35 Calm 10.00 Fair CLR 71.4 63.1 75% 29.92 0.0
02 12:15 Calm 10.00 Fair CLR 71.4 63.1 75% 29.95 0.0
02 11:55 Calm 10.00 Fair CLR 71.1 62.6 75% 29.95 0.0
02 11:35 Calm 10.00 Fair CLR 71.1 63.1 76% 29.95 0.0
02 11:15 Calm 10.00 Fair CLR 70 64.2 82% 29.96 0.0
02 10:55 NW 5 10.00 Partly Cloudy SCT110 69.4 65.5 87% 29.95 0.0
02 10:35 Calm 10.00 Fair CLR 68.7 64.4 86% 29.92 0.0
02 10:15 Calm 10.00 Partly Cloudy SCT120 67.1 64.4 91% 29.9 0.0
02 09:55 Calm 10.00 Light Rain SCT039 SCT060 BKN110 66.7 64 91% 29.91 0.0
02 09:35 Calm 10.00 Light Rain SCT100 BKN110 66.7 64.4 92% 29.93 0.0
02 09:15 Calm 10.00 Light Rain BKN100 OVC110 67.1 63.1 87% 29.95 0.0
02 08:55 N 5 5.00 Heavy Rain BKN100 BKN120 68.9 62.8 81% 29.95 0.0
02 08:35 W 5 10.00 Rain SCT095 BKN110 71.1 64.8 81% 30.02 0.0
02 08:15 W 7 5.00 Fog/Mist SCT002 OVC110 69.6 68.2 95% 30 0.0
02 07:55 Calm 2.50 Fog/Mist SCT110 68.4 67.1 74.8 66.7 96% 29.95 0.0
02 07:35 Calm 3.00 Fog/Mist SCT004 67.3 65.8 95% 29.93 0.0
02 07:15 Calm 1.50 Fog/Mist SCT004 66.9 65.5 95% 29.92 0.0
02 06:55 Calm 2.50 Fog/Mist CLR 68.2 66.7 95% 29.91 0.0
02 06:35 Calm 3.00 Fog/Mist CLR 68 66.6 95% 29.9 0.0
02 06:15 Calm 1.50 Fog/Mist SCT005 67.5 66 95% 29.91 0.0
02 05:55 Calm 0.75 Fog/Mist SCT005 68.2 66.6 95% 29.91 0.0
02 05:35 Calm 2.00 Fog/Mist CLR 69.1 67.5 95% 29.92 0.0
02 05:15 Calm 4.00 Fog/Mist CLR 70.3 68.5 94% 29.92 0.0
02 04:55 Calm 5.00 Fog/Mist CLR 70.9 68.4 92% 29.9 0.0
02 04:35 Calm 10.00 Fair CLR 72.7 69.3 89% 29.9 0.0
02 04:15 Calm 10.00 Fair CLR 73.4 70.9 92% 29.89 0.0
02 03:55 Calm 5.00 Fog/Mist CLR 72.1 70.2 94% 29.89 0.0
02 03:35 Calm 7.00 Fair CLR 74.5 72.3 93% 29.89 0.0
02 03:15 Calm 10.00 Fair CLR 74.7 72.5 93% 29.9 0.0
02 02:55 SW 3 7.00 Partly Cloudy SCT060 73.6 72 95% 29.9 0.0
02 02:35 Calm 5.00 Fog/Mist SCT060 72.5 70.9 95% 29.9 0.0
02 02:15 Calm 5.00 Fog/Mist SCT060 72.7 70.9 94% 29.89 0.0
02 01:55 Calm 7.00 Partly Cloudy SCT060 73.2 71.1 77.4 70.2 93% 29.89 0.0
02 01:35 SW 5 7.00 Fair CLR 73.2 71.6 95% 29.89 0.0
02 01:15 Calm 4.00 Fog/Mist SCT070 70.3 68.9 95% 29.89 0.0
02 00:55 Calm 0.75 Fog/Mist BKN004 BKN070 70.2 68.4 94% 29.89 0.0
02 00:35 Calm 1.75 Fog/Mist VV007 70.7 68.9 94% 29.89 0.0
02 00:15 Calm 3.00 Fog/Mist CLR 71.1 69.3 94% 29.89 0.0
01 23:55 Calm 2.50 Fog/Mist CLR 71.4 69.8 95% 29.89 0.0
01 23:35 Calm 2.50 Fog/Mist CLR 71.1 69.4 95% 29.9 0.0
01 22:55 Calm 2.50 Fog/Mist CLR 71.6 69.8 94% 29.9 0.0
01 22:35 Calm 4.00 Fog/Mist CLR 72 70.2 94% 29.9 0.0
01 22:15 Calm 3.00 Fog/Mist CLR 72 70 94% 29.9 0.0
01 21:55 Calm 4.00 Fog/Mist CLR 72.7 70.5 93% 29.89 0.0
01 21:35 Calm 4.00 Fog/Mist CLR 72.9 70.9 94% 29.89 0.0
01 21:15 Calm 7.00 Fair CLR 73.6 71.6 94% 29.9 0.0
01 20:55 Calm 7.00 Fair CLR 74.1 71.8 92% 29.89 0.0
01 20:35 Calm 7.00 Partly Cloudy SCT028 75.2 72.5 91% 74 29.89 0.0
01 20:15 Calm 10.00 Fair CLR 77 73.4 89% 78 29.89 0.0
01 19:55 Calm 10.00 Fair CLR 77.4 73.2 88.9 77.4 87% 79 29.89 0.0
01 19:35 Calm 10.00 Fair CLR 79.9 73 80% 84 29.89 0.0
01 19:15 Calm 10.00 Fair CLR 81.5 73 76% 87 29.89 0.0
01 18:55 Calm 10.00 Fair CLR 83.7 70.2 64% 88 29.89 0.0
01 18:35 Calm 10.00 Fair CLR 85.1 70.2 61% 90 29.89 0.0
01 18:15 Calm 10.00 Fair CLR 86.9 70.5 58% 92 29.89 0.0
01 17:55 Calm 10.00 Fair CLR 87.8 69.6 55% 93 29.89 0.0
01 17:35 W 3 10.00 Fair CLR 87.6 68.9 54% 92 29.89 0.0
01 17:15 W 3 10.00 Fair CLR 88.2 68.7 53% 92 29.89 0.0
01 16:55 Calm 10.00 Fair CLR 88.7 68.5 51% 93 29.89 0.0
01 16:35 Calm 10.00 Fair CLR 88.3 67.8 51% 92 29.89 0.0
01 16:15 Calm 10.00 Fair CLR 88.3 67.3 50% 92 29.9 0.0
01 15:55 W 3 10.00 Fair CLR 88.2 67.6 51% 92 29.91 0.0
01 15:35 NW 3 10.00 Fair CLR 87.8 66.9 50% 91 29.92 0.0
01 15:15 Calm 10.00 Fair CLR 86.7 66 50% 89 29.92 0.0
01 14:55 W 3 10.00 Fair CLR 87.1 64.9 48% 89 29.92 0.0
01 14:35 W 3 10.00 Fair CLR 86.9 65.3 49% 89 29.93 0.0
01 14:15 Calm 10.00 Fair CLR 86.7 66.7 51% 89 29.94 0.0
01 13:55 W 3 10.00 Fair CLR 85.8 65.8 86.4 66.2 51% 88 29.94 0.0
01 13:35 Calm 10.00 Fair CLR 85.1 67.5 56% 88 29.94 0.0
01 13:15 S 5 10.00 Fair CLR 84.6 69.3 60% 89 29.94 0.0
01 12:55 S 3 10.00 Fair CLR 83.5 69.3 62% 87 29.95 0.0
01 12:35 Calm 10.00 Partly Cloudy SCT029 SCT033 82.8 70 65% 87 29.95 0.0
01 12:15 Calm 10.00 Partly Cloudy SCT018 SCT031 80.6 70.7 72% 84 29.95 0.0
01 11:55 Calm 10.00 Mostly Cloudy SCT018 BKN025 BKN031 79.7 70.7 74% 83 29.95 0.0
01 11:35 Calm 10.00 Mostly Cloudy SCT018 BKN025 78.4 70.5 77% 81 29.95 0.0
01 11:15 N 3 10.00 Overcast BKN014 OVC025 76.8 71.2 83% 78 29.96 0.0
01 10:35 Calm 10.00 Overcast OVC014 74.8 70.7 87% 29.95 0.0
01 10:15 Calm 10.00 Overcast OVC014 73.4 70.5 91% 29.95 0.0
01 09:55 Calm 7.00 Overcast OVC014 71.6 70 95% 29.95 0.0
01 09:35 Calm 7.00 Overcast BKN003 SCT007 OVC014 70 68.5 95% 29.95 0.0
01 09:15 Calm 0.50 Fog OVC003 68.2 66.9 96% 29.95 0.0
01 08:55 Calm 0.25 Fog OVC003 67.3 66.2 96% 29.95 0.0
01 08:35 Calm 0.15 Fog OVC003 67.1 65.8 96% 29.95 0.0
01 08:15 Calm 0.15 Fog OVC003 67.1 65.7 95% 29.95 0.0
01 07:55 Calm 2.50 Fog/Mist OVC003 66.2 64.9 68.9 64.6 96% 29.94 0.0
01 07:35 Calm 0.75 Fog/Mist OVC003 64.8 63.5 96% 29.93 0.0
01 07:15 Calm 1.50 Fog/Mist BKN003 OVC095 65.3 64 96% 29.92 0.0
01 06:55 Calm 1.50 Fog/Mist SCT001 OVC095 65.5 64.2 96% 29.92 0.0
01 06:35 Calm 2.50 Fog/Mist BKN001 OVC095 65.5 64.4 96% 29.92 0.0
01 06:15 Calm 2.00 Fog/Mist OVC001 65.8 64.6 96% 29.92 0.0
01 05:55 Calm 1.75 Fog/Mist OVC001 66.2 65.1 96% 29.91 0.0
01 05:35 Calm 0.15 Fog OVC001 66.2 64.9 96% 29.91 0.0
01 05:15 Calm 0.15 Fog OVC001 66 64.8 96% 29.92 0.0
01 04:55 Calm 0.15 Fog OVC001 65.3 64.2 96% 29.91 0.0
01 04:35 Calm 0.25 Fog OVC001 65.8 64.6 96% 29.91 0.0
01 04:15 Calm 1.00 Fog/Mist BKN003 66.2 64.6 95% 29.9 0.0
01 03:55 Calm 1.75 Fog/Mist BKN003 BKN006 67.1 65.5 95% 29.9 0.0
01 03:35 Calm 0.75 Fog/Mist OVC003 67.3 65.8 95% 29.9 0.0
01 03:15 Calm 1.75 Fog/Mist SCT005 SCT120 67.8 66.4 95% 29.9 0.0
01 02:55 Calm 4.00 Fog/Mist BKN120 68.4 67.1 96% 29.91 0.0
01 02:35 Calm 2.50 Fog/Mist BKN120 68.2 66.9 96% 29.91 0.0
01 02:15 Calm 1.75 Fog/Mist SCT003 SCT120 68.2 66.7 95% 29.91 0.0
01 01:55 Calm 2.50 Fog/Mist CLR 68.9 67.3 74.8 68.9 95% 29.91 0.0
01 01:35 Calm 2.50 Fog/Mist CLR 68.9 67.3 95% 29.91 0.0
01 01:15 Calm 4.00 Fog/Mist CLR 69.8 68 94% 29.9 0.0
01 00:55 Calm 0.75 Fog/Mist VV005 70.2 68.4 94% 29.9 0.0
01 00:35 Calm 5.00 Fog/Mist SCT040 71.1 69.1 94% 29.9 0.0
01 00:15 Calm 10.00 Overcast SCT033 OVC040 72.5 70.2 92% 29.91 0.0
31 23:55 Calm 10.00 Overcast OVC034 72.3 70.2 93% 29.91 0.0
31 23:35 Calm 7.00 Overcast OVC034 72.1 70.2 94% 29.91 0.0
31 23:15 Calm 7.00 Overcast OVC034 72.5 70.3 93% 29.9 0.0
31 22:55 Calm 10.00 Overcast OVC034 72.5 70.2 92% 29.91 0.0
31 22:35 Calm 10.00 Overcast OVC036 72.9 70.3 92% 29.9 0.0
31 22:15 Calm 10.00 Overcast OVC036 72.7 70.2 92% 29.9 0.0
31 21:55 Calm 10.00 Overcast OVC036 73.4 70.7 91% 29.9 0.0
31 21:35 Calm 10.00 Overcast OVC036 73.8 70.7 90% 29.89 0.0
31 21:15 Calm 10.00 Mostly Cloudy BKN038 72.5 70.2 92% 29.89 0.0
31 20:55 Calm 10.00 Fair CLR 73.2 70.7 92% 29.88 0.0
31 20:35 Calm 10.00 Mostly Cloudy SCT033 BKN043 73.4 70.9 92% 29.87 0.0
31 20:15 Calm 10.00 Mostly Cloudy SCT035 BKN043 74.3 71.6 91% 29.88 0.0
31 19:35 Calm 10.00 Mostly Cloudy BKN048 77.9 71.2 80% 80 29.87 0.0
31 19:15 Calm 10.00 Partly Cloudy SCT050 80.2 69.8 71% 83 29.87 0.0
31 18:55 Calm 10.00 Fair CLR 81.3 68.2 64% 84 29.86 0.0
31 18:35 Calm 10.00 Fair CLR 82 68.2 63% 85 29.86 0.0
31 18:15 W 3 10.00 Fair CLR 82.8 68.2 62% 86 29.86 0.0
31 17:55 W 3 10.00 Fair CLR 82.6 68.4 62% 86 29.85 0.0
31 17:35 SW 3 10.00 Fair CLR 84 67.3 57% 87 29.85 0.0
31 17:15 W 3 10.00 Fair CLR 84 68.9 61% 88 29.85 0.0
31 16:55 SW 3 10.00 Fair CLR 85.1 68.5 58% 89 29.85 0.0
31 16:35 SW 5 10.00 Fair CLR 85.1 68.7 58% 89 29.85 0.0
31 16:15 SW 5 10.00 Fair CLR 84.9 68 57% 88 29.85 0.0
31 15:55 S 6 10.00 Partly Cloudy SCT037 SCT075 84.9 68.4 58% 88 29.86 0.0
31 15:35 S 5 10.00 Mostly Cloudy SCT037 BKN075 84.4 68.4 59% 88 29.87 0.0
31 15:15 SW 5 10.00 Mostly Cloudy BKN035 BKN075 83.5 68 60% 87 29.87 0.0
31 14:55 SW 7 10.00 Mostly Cloudy SCT035 BKN075 83.3 67.8 60% 86 29.88 0.0
31 14:35 S 7 10.00 Partly Cloudy SCT075 82.8 67.1 59% 85 29.88 0.0
31 14:15 S 8 10.00 Mostly Cloudy BKN075 82 67.1 61% 85 29.89 0.0
31 13:55 S 8 G 17 10.00 Mostly Cloudy BKN075 82 67.1 82.4 68 61% 85 29.89 0.0
31 13:35 S 7 10.00 Mostly Cloudy BKN075 81.9 68 63% 85 29.89 0.0
31 13:15 S 12 G 17 10.00 Partly Cloudy SCT075 81.5 67.5 63% 84 29.89 0.0
31 12:55 S 9 10.00 Overcast OVC075 78.6 68 70% 81 29.89 0.0
31 12:35 S 6 G 18 10.00 Overcast BKN075 OVC095 77.4 68.2 73% 79 29.9 0.0
31 12:15 S 9 10.00 Overcast OVC075 75.4 68.2 78% 76 29.9 0.0
31 11:55 S 7 10.00 Overcast BKN075 OVC095 73 68.5 86% 29.9 0.0
31 11:35 S 7 10.00 Overcast OVC085 72.1 68.4 88% 29.91 0.0
31 11:15 S 16 G 23 10.00 Light Rain SCT032 SCT046 OVC085 70.3 68 92% 29.92 0.0
31 10:55 S 9 5.00 Light Rain SCT008 BKN050 OVC095 69.4 68 95% 29.95 0.0
31 10:35 S 5 1.75 Heavy Rain SCT027 BKN048 OVC065 69.3 67.6 95% 29.96 0.0
31 10:15 Calm 1.00 Heavy Rain SCT006 BKN045 OVC070 69.3 67.6 95% 29.97 0.0
31 09:55 S 3 4.00 Rain SCT004 BKN029 OVC090 69.3 67.6 95% 29.97 0.0
31 09:35 Calm 4.00 Rain OVC004 68.9 67.3 95% 29.97 0.0
31 09:15 S 3 5.00 Rain OVC006 68.9 67.5 95% 29.98 0.0
31 08:55 S 3 5.00 Rain BKN006 BKN019 OVC090 68.9 67.5 95% 29.99 0.0
31 08:35 SW 3 7.00 Rain SCT075 BKN080 OVC110 68.9 67.3 95% 29.98 0.0
31 08:15 Calm 5.00 Rain SCT085 OVC100 68.2 66.7 95% 29.95 0.0
31 07:55 Calm 4.00 Light Rain OVC085 68 66.6 69.3 66.7 95% 29.93 0.0
31 07:35 Calm 3.00 Light Rain BKN085 67.1 65.8 96% 29.93 0.0
31 07:15 Calm 1.75 Fog/Mist SCT085 66.9 65.5 95% 29.93 0.0
31 06:55 Calm 4.00 Fog/Mist CLR 67.5 66.2 96% 29.93 0.0
31 06:35 Calm 1.25 Fog/Mist SCT090 67.1 65.5 95% 29.93 0.0
31 06:15 Calm 2.50 Fog/Mist OVC090 67.3 65.8 95% 29.96 0.0
31 05:55 Calm 3.00 Fog/Mist BKN090 OVC110 67.5 66.2 96% 29.96 0.0
31 05:35 Calm 2.50 Fog/Mist OVC100 67.3 65.8 95% 29.96 0.0
31 05:15 Calm 2.00 Fog/Mist SCT004 OVC110 67.1 65.7 95% 29.97 0.0
31 04:55 Calm 2.00 Light Rain SCT004 SCT040 BKN110 67.1 65.7 95% 29.97 0.0
31 04:35 Calm 3.00 Fog/Mist SCT040 SCT050 BKN120 68 66.4 95% 29.97 0.0
31 04:15 Calm 3.00 Rain SCT044 BKN090 OVC110 67.8 66 94% 29.97 0.0
31 03:55 Calm 10.00 Overcast SCT017 BKN042 OVC110 68.5 66.2 92% 29.96 0.0
31 03:35 Calm 10.00 Overcast SCT017 OVC040 69.1 66.9 93% 29.97 0.0
31 03:15 Calm 7.00 Mostly Cloudy BKN044 67.8 66.2 95% 29.96 0.0
31 02:55 Calm 4.00 Fog/Mist BKN044 67.3 65.7 95% 29.95 0.0
Date Time (edt) Wind (mph) Vis. (mi.) Weather Sky Cond. Air Dwpt Max. Min. Relative Humidity Wind Chill (°F) Heat Index (°F) altimeter (in) sea level (mb) 1 hr 3 hr 6 hr
6 hour
Temperature (ºF) Pressure Precipitation (in)